9°C Temp
8°C Dewpoint
% Humidity
Temperature
2 KM/H
1 MPH
1 KTS
250°
West South
West

Wind Speed
Clear
Conditions
Pressure 1028.92 (hPa) - 30.38 (in)
Visibility 6.2 (mi) - 10.0 (km)

Current Conditions
EHBK
Location 6km (3.2mi)
Metar :EHBK 070355Z AUTO 25001KT 9999 NCD 09/08 Q1029
Tue 7th April 04:55 am

Airport
  Metar Aviation API Data Provided by https://www.checkwx.com/ PHP scripts by weather34.com ©2020